Time,TemperatureF,DewpointF,PressureIn,WindDirection,WindDirectionDegrees,WindSpeedMPH,WindSpeedGustMPH,Humidity,HourlyPrecipIn,Conditions,Clouds,dailyrainin,SoftwareType,DateUTC
2013-03-06 00:06:00,42.4,42.2,29.48,SW,225,0.0,-999.0,99,-99.99,,,0.00,Acu-Link.com,2013-03-06 05:06:00,
2013-03-06 00:21:00,42.3,42.0,29.47,NNE,22,0.0,-999.0,99,-99.99,,,0.00,Acu-Link.com,2013-03-06 05:21:00,
2013-03-06 00:36:00,42.3,42.0,29.46,NNE,22,0.0,-999.0,99,-99.99,,,0.00,Acu-Link.com,2013-03-06 05:36:00,
2013-03-06 00:52:00,42.1,41.8,29.44,WNW,292,0.0,-999.0,99,-99.99,,,0.00,Acu-Link.com,2013-03-06 05:52:00,
2013-03-06 01:11:00,42.1,41.8,29.44,WSW,247,0.0,-999.0,99,-99.99,,,0.00,Acu-Link.com,2013-03-06 06:11:00,
2013-03-06 01:26:00,42.3,42.0,29.42,NNE,22,0.0,-999.0,99,-99.99,,,0.00,Acu-Link.com,2013-03-06 06:26:00,
2013-03-06 01:41:00,42.4,42.2,29.42,NNE,22,0.0,-999.0,99,-99.99,,,0.00,Acu-Link.com,2013-03-06 06:41:00,
2013-03-06 01:57:00,42.4,42.2,29.41,NNE,22,0.0,-999.0,99,-99.99,,,0.00,Acu-Link.com,2013-03-06 06:57:00,
2013-03-06 02:12:00,41.9,41.6,29.40,South,180,0.0,-999.0,99,-99.99,,,0.00,Acu-Link.com,2013-03-06 07:12:00,
2013-03-06 02:27:00,41.9,41.6,29.40,WNW,292,0.0,-999.0,99,-99.99,,,0.00,Acu-Link.com,2013-03-06 07:27:00,
2013-03-06 02:43:00,41.9,41.6,29.40,SE,135,0.0,-999.0,99,-99.99,,,0.00,Acu-Link.com,2013-03-06 07:43:00,
2013-03-06 02:58:00,42.1,41.8,29.40,West,270,1.6,-999.0,99,-99.99,,,0.00,Acu-Link.com,2013-03-06 07:58:00,
2013-03-06 03:13:00,42.4,42.2,29.42,SW,225,2.2,-999.0,99,-99.99,,,0.00,Acu-Link.com,2013-03-06 08:13:00,
2013-03-06 03:28:00,41.9,41.6,29.42,NW,315,1.6,-999.0,99,-99.99,,,0.00,Acu-Link.com,2013-03-06 08:28:00,
2013-03-06 03:44:00,41.2,40.9,29.43,NNW,337,3.1,-999.0,99,-99.99,,,0.00,Acu-Link.com,2013-03-06 08:44:00,
2013-03-06 03:59:00,41.0,40.7,29.43,West,270,0.0,-999.0,99,-99.99,,,0.00,Acu-Link.com,2013-03-06 08:59:00,
2013-03-06 04:23:00,41.0,40.7,29.44,West,270,1.6,-999.0,99,-99.99,,,0.00,Acu-Link.com,2013-03-06 09:23:00,
2013-03-06 04:38:00,40.3,39.8,29.45,West,270,1.6,-999.0,98,-99.99,,,0.00,Acu-Link.com,2013-03-06 09:38:00,
2013-03-06 04:53:00,40.1,39.6,29.45,WNW,292,2.2,-999.0,98,-99.99,,,0.00,Acu-Link.com,2013-03-06 09:53:00,
2013-03-06 05:08:00,39.9,39.4,29.46,NNE,22,2.2,-999.0,98,-99.99,,,0.00,Acu-Link.com,2013-03-06 10:08:00,
2013-03-06 05:23:00,39.7,39.0,29.47,SW,225,2.2,-999.0,97,-99.99,,,0.00,Acu-Link.com,2013-03-06 10:23:00,
2013-03-06 05:39:00,38.8,36.7,29.48,WNW,292,2.7,-999.0,92,-99.99,,,0.00,Acu-Link.com,2013-03-06 10:39:00,
2013-03-06 05:54:00,38.1,36.3,29.49,North,0,4.3,-999.0,93,-99.99,,,0.00,Acu-Link.com,2013-03-06 10:54:00,
2013-03-06 06:09:00,37.4,35.6,29.49,WNW,292,2.7,-999.0,93,-99.99,,,0.00,Acu-Link.com,2013-03-06 11:09:00,
2013-03-06 06:24:00,37.2,35.4,29.51,NW,315,2.2,-999.0,93,-99.99,,,0.00,Acu-Link.com,2013-03-06 11:24:00,
2013-03-06 06:39:00,37.2,35.7,29.51,West,270,3.8,-999.0,94,-99.99,,,0.00,Acu-Link.com,2013-03-06 11:39:00,
2013-03-06 06:55:00,37.2,35.1,29.50,WNW,292,2.7,-999.0,92,-99.99,,,0.00,Acu-Link.com,2013-03-06 11:55:00,
2013-03-06 07:10:00,37.6,34.9,29.51,West,270,2.7,-999.0,90,-99.99,,,0.00,Acu-Link.com,2013-03-06 12:10:00,
2013-03-06 07:25:00,37.9,34.4,29.52,West,270,4.3,-999.0,87,-99.99,,,0.00,Acu-Link.com,2013-03-06 12:25:00,
2013-03-06 07:40:00,38.3,34.8,29.52,WSW,247,2.2,-999.0,87,-99.99,,,0.00,Acu-Link.com,2013-03-06 12:40:00,
2013-03-06 07:56:00,38.8,35.3,29.53,SSW,202,3.1,-999.0,87,-99.99,,,0.00,Acu-Link.com,2013-03-06 12:56:00,
2013-03-06 08:11:00,38.8,35.3,29.53,SW,225,2.7,-999.0,87,-99.99,,,0.00,Acu-Link.com,2013-03-06 13:11:00,
2013-03-06 08:26:00,38.8,34.7,29.54,NW,315,3.8,-999.0,85,-99.99,,,0.00,Acu-Link.com,2013-03-06 13:26:00,
2013-03-06 08:41:00,39.4,33.7,29.54,WSW,247,4.3,-999.0,80,-99.99,,,0.00,Acu-Link.com,2013-03-06 13:41:00,
2013-03-06 08:56:00,39.7,32.5,29.54,WSW,247,2.7,-999.0,75,-99.99,,,0.00,Acu-Link.com,2013-03-06 13:56:00,
2013-03-06 09:12:00,40.5,32.8,29.54,SSW,202,2.2,-999.0,74,-99.99,,,0.00,Acu-Link.com,2013-03-06 14:12:00,
2013-03-06 09:27:00,40.5,31.8,29.54,West,270,2.2,-999.0,71,-99.99,,,0.00,Acu-Link.com,2013-03-06 14:27:00,
2013-03-06 09:42:00,40.5,31.5,29.55,NNW,337,3.1,-999.0,70,-99.99,,,0.00,Acu-Link.com,2013-03-06 14:42:00,
2013-03-06 09:58:00,41.5,31.4,29.55,West,270,1.6,-999.0,67,-99.99,,,0.00,Acu-Link.com,2013-03-06 14:58:00,
2013-03-06 10:13:00,42.8,30.7,29.55,SSW,202,3.1,-999.0,62,-99.99,,,0.00,Acu-Link.com,2013-03-06 15:13:00,
2013-03-06 10:28:00,43.2,29.8,29.55,WNW,292,2.7,-999.0,59,-99.99,,,0.00,Acu-Link.com,2013-03-06 15:28:00,
2013-03-06 10:44:00,42.8,29.5,29.55,NW,315,3.8,-999.0,59,-99.99,,,0.00,Acu-Link.com,2013-03-06 15:44:00,
2013-03-06 10:59:00,42.6,28.9,29.56,WSW,247,3.1,-999.0,58,-99.99,,,0.00,Acu-Link.com,2013-03-06 15:59:00,
2013-03-06 11:14:00,43.5,28.9,29.56,West,270,2.2,-999.0,56,-99.99,,,0.00,Acu-Link.com,2013-03-06 16:14:00,
2013-03-06 11:29:00,43.3,28.7,29.57,SW,225,4.3,-999.0,56,-99.99,,,0.00,Acu-Link.com,2013-03-06 16:29:00,
2013-03-06 11:45:00,43.2,29.0,29.58,NW,315,4.3,-999.0,57,-99.99,,,0.00,Acu-Link.com,2013-03-06 16:45:00,
2013-03-06 12:00:00,42.8,29.1,29.58,West,270,10.3,-999.0,58,-99.99,,,0.00,Acu-Link.com,2013-03-06 17:00:00,
2013-03-06 12:15:00,43.5,28.9,29.58,SW,225,3.8,-999.0,56,-99.99,,,0.00,Acu-Link.com,2013-03-06 17:15:00,
2013-03-06 12:30:00,43.7,28.2,29.57,West,270,3.8,-999.0,54,-99.99,,,0.00,Acu-Link.com,2013-03-06 17:30:00,
2013-03-06 12:46:00,43.7,28.2,29.58,WSW,247,3.1,-999.0,54,-99.99,,,0.00,Acu-Link.com,2013-03-06 17:46:00,
2013-03-06 13:01:00,43.9,27.9,29.59,WSW,247,9.4,-999.0,53,-99.99,,,0.00,Acu-Link.com,2013-03-06 18:01:00,
2013-03-06 13:16:00,44.2,27.7,29.58,SW,225,6.3,-999.0,52,-99.99,,,0.00,Acu-Link.com,2013-03-06 18:16:00,
2013-03-06 13:31:00,44.4,27.9,29.59,SSW,202,7.8,-999.0,52,-99.99,,,0.00,Acu-Link.com,2013-03-06 18:31:00,
2013-03-06 13:47:00,45.1,29.0,29.59,WSW,247,3.8,-999.0,53,-99.99,,,0.00,Acu-Link.com,2013-03-06 18:47:00,
2013-03-06 14:02:00,45.7,29.5,29.60,West,270,2.7,-999.0,53,-99.99,,,0.00,Acu-Link.com,2013-03-06 19:02:00,
2013-03-06 14:17:00,45.5,30.3,29.61,SW,225,6.7,-999.0,55,-99.99,,,0.00,Acu-Link.com,2013-03-06 19:17:00,
2013-03-06 14:32:00,45.5,30.3,29.61,SW,225,8.3,-999.0,55,-99.99,,,0.00,Acu-Link.com,2013-03-06 19:32:00,
2013-03-06 14:48:00,45.5,31.2,29.61,West,270,5.1,-999.0,57,-99.99,,,0.00,Acu-Link.com,2013-03-06 19:48:00,
2013-03-06 15:03:00,46.2,31.4,29.63,SW,225,3.8,-999.0,56,-99.99,,,0.00,Acu-Link.com,2013-03-06 20:03:00,
2013-03-06 15:18:00,46.0,31.7,29.64,NE,45,4.3,-999.0,57,-99.99,,,0.00,Acu-Link.com,2013-03-06 20:18:00,
2013-03-06 15:33:00,46.0,32.1,29.65,WSW,247,5.1,-999.0,58,-99.99,,,0.00,Acu-Link.com,2013-03-06 20:33:00,
2013-03-06 15:49:00,46.0,32.1,29.66,NNE,22,4.7,-999.0,58,-99.99,,,0.00,Acu-Link.com,2013-03-06 20:49:00,
2013-03-06 16:04:00,46.0,32.1,29.68,South,180,4.7,-999.0,58,-99.99,,,0.00,Acu-Link.com,2013-03-06 21:04:00,
2013-03-06 16:19:00,45.9,32.8,29.69,West,270,4.3,-999.0,60,-99.99,,,0.00,Acu-Link.com,2013-03-06 21:19:00,
2013-03-06 16:35:00,45.9,32.8,29.70,NNW,337,10.3,-999.0,60,-99.99,,,0.00,Acu-Link.com,2013-03-06 21:35:00,
2013-03-06 16:50:00,45.9,33.2,29.73,East,90,5.1,-999.0,61,-99.99,,,0.00,Acu-Link.com,2013-03-06 21:50:00,
2013-03-06 17:05:00,45.5,33.6,29.74,West,270,10.3,-999.0,63,-99.99,,,0.00,Acu-Link.com,2013-03-06 22:05:00,
2013-03-06 17:20:00,44.8,34.9,29.75,NNW,337,6.3,-999.0,68,-99.99,,,0.00,Acu-Link.com,2013-03-06 22:20:00,
2013-03-06 17:35:00,44.4,34.9,29.76,South,180,4.3,-999.0,69,-99.99,,,0.00,Acu-Link.com,2013-03-06 22:35:00,
2013-03-06 17:51:00,44.2,34.7,29.78,West,270,4.3,-999.0,69,-99.99,,,0.00,Acu-Link.com,2013-03-06 22:51:00,
2013-03-06 18:06:00,43.7,35.6,29.80,WNW,292,4.3,-999.0,73,-99.99,,,0.00,Acu-Link.com,2013-03-06 23:06:00,
2013-03-06 18:21:00,43.2,36.1,29.81,NW,315,5.8,-999.0,76,-99.99,,,0.00,Acu-Link.com,2013-03-06 23:21:00,
2013-03-06 18:36:00,42.8,36.4,29.82,NW,315,4.3,-999.0,78,-99.99,,,0.00,Acu-Link.com,2013-03-06 23:36:00,
2013-03-06 18:52:00,42.6,36.6,29.84,NE,45,1.6,-999.0,79,-99.99,,,0.00,Acu-Link.com,2013-03-06 23:52:00,
2013-03-06 19:07:00,42.6,36.6,29.85,West,270,5.8,-999.0,79,-99.99,,,0.00,Acu-Link.com,2013-03-07 00:07:00,
2013-03-06 19:22:00,42.4,37.0,29.86,WNW,292,1.6,-999.0,81,-99.99,,,0.00,Acu-Link.com,2013-03-07 00:22:00,
2013-03-06 19:37:00,42.3,36.9,29.86,NW,315,0.0,-999.0,81,-99.99,,,0.00,Acu-Link.com,2013-03-07 00:37:00,
2013-03-06 19:53:00,42.4,36.4,29.87,SW,225,4.3,-999.0,79,-99.99,,,0.00,Acu-Link.com,2013-03-07 00:53:00,
2013-03-06 20:08:00,42.8,36.1,29.88,ENE,67,4.3,-999.0,77,-99.99,,,0.00,Acu-Link.com,2013-03-07 01:08:00,
2013-03-06 20:23:00,43.3,33.9,29.88,NNE,22,3.1,-999.0,69,-99.99,,,0.00,Acu-Link.com,2013-03-07 01:23:00,
2013-03-06 20:38:00,43.5,32.2,29.89,WNW,292,3.8,-999.0,64,-99.99,,,0.00,Acu-Link.com,2013-03-07 01:38:00,
2013-03-06 20:53:00,43.5,31.8,29.91,NNE,22,5.8,-999.0,63,-99.99,,,0.00,Acu-Link.com,2013-03-07 01:53:00,
2013-03-06 21:08:00,43.3,31.2,29.91,North,0,3.8,-999.0,62,-99.99,,,0.00,Acu-Link.com,2013-03-07 02:08:00,
2013-03-06 21:23:00,43.3,30.8,29.91,NW,315,6.3,-999.0,61,-99.99,,,0.00,Acu-Link.com,2013-03-07 02:23:00,
2013-03-06 21:39:00,43.3,30.8,29.91,NNW,337,3.1,-999.0,61,-99.99,,,0.00,Acu-Link.com,2013-03-07 02:39:00,
2013-03-06 21:54:00,43.2,30.6,29.92,NNW,337,5.1,-999.0,61,-99.99,,,0.00,Acu-Link.com,2013-03-07 02:54:00,
2013-03-06 22:09:00,42.4,31.1,29.92,WNW,292,2.2,-999.0,64,-99.99,,,0.00,Acu-Link.com,2013-03-07 03:09:00,
2013-03-06 22:24:00,41.5,31.0,29.93,NW,315,2.2,-999.0,66,-99.99,,,0.00,Acu-Link.com,2013-03-07 03:24:00,
2013-03-06 22:39:00,41.0,30.9,29.93,NW,315,0.0,-999.0,67,-99.99,,,0.00,Acu-Link.com,2013-03-07 03:39:00,
2013-03-06 22:55:00,40.3,31.3,29.93,WNW,292,0.0,-999.0,70,-99.99,,,0.00,Acu-Link.com,2013-03-07 03:55:00,
2013-03-06 23:10:00,39.7,30.8,29.93,NW,315,1.6,-999.0,70,-99.99,,,0.00,Acu-Link.com,2013-03-07 04:10:00,
2013-03-06 23:25:00,39.6,30.6,29.93,NNW,337,1.6,-999.0,70,-99.99,,,0.00,Acu-Link.com,2013-03-07 04:25:00,
2013-03-06 23:40:00,39.4,30.4,29.93,WNW,292,3.8,-999.0,70,-99.99,,,0.00,Acu-Link.com,2013-03-07 04:40:00,
2013-03-06 23:56:00,39.0,30.1,29.93,West,270,0.0,-999.0,70,-99.99,,,0.00,Acu-Link.com,2013-03-07 04:56:00,